sensor_id;sensor_type;location;lat;lon;timestamp;temperature;humidity
68943;DHT22;60852;52.190;4.422;2023-04-01T00:00:17;10.79;87.17
68943;DHT22;60852;52.190;4.422;2023-04-01T00:02:43;10.76;87.16
68943;DHT22;60852;52.190;4.422;2023-04-01T00:05:10;10.76;87.22
68943;DHT22;60852;52.190;4.422;2023-04-01T00:07:36;10.79;87.32
68943;DHT22;60852;52.190;4.422;2023-04-01T00:10:03;10.75;87.38
68943;DHT22;60852;52.190;4.422;2023-04-01T00:12:29;10.76;87.50
68943;DHT22;60852;52.190;4.422;2023-04-01T00:14:54;10.78;87.46
68943;DHT22;60852;52.190;4.422;2023-04-01T00:17:20;10.78;87.35
68943;DHT22;60852;52.190;4.422;2023-04-01T00:19:45;10.71;87.55
68943;DHT22;60852;52.190;4.422;2023-04-01T00:22:11;10.73;87.47
68943;DHT22;60852;52.190;4.422;2023-04-01T00:24:38;10.69;87.43
68943;DHT22;60852;52.190;4.422;2023-04-01T00:27:03;10.72;87.62
68943;DHT22;60852;52.190;4.422;2023-04-01T00:29:29;10.68;87.58
68943;DHT22;60852;52.190;4.422;2023-04-01T00:31:59;10.67;87.66
68943;DHT22;60852;52.190;4.422;2023-04-01T00:34:24;10.61;87.73
68943;DHT22;60852;52.190;4.422;2023-04-01T00:36:51;10.60;87.93
68943;DHT22;60852;52.190;4.422;2023-04-01T00:39:17;10.60;87.94
68943;DHT22;60852;52.190;4.422;2023-04-01T00:41:43;10.60;88.05
68943;DHT22;60852;52.190;4.422;2023-04-01T00:44:37;10.52;88.26
68943;DHT22;60852;52.190;4.422;2023-04-01T00:47:01;10.50;88.24
68943;DHT22;60852;52.190;4.422;2023-04-01T00:49:35;10.45;88.45
68943;DHT22;60852;52.190;4.422;2023-04-01T00:52:04;10.45;88.53
68943;DHT22;60852;52.190;4.422;2023-04-01T00:54:32;10.45;88.50
68943;DHT22;60852;52.190;4.422;2023-04-01T00:57:02;10.48;88.65
68943;DHT22;60852;52.190;4.422;2023-04-01T00:59:58;10.52;88.41
68943;DHT22;60852;52.190;4.422;2023-04-01T01:02:25;10.51;88.36
68943;DHT22;60852;52.190;4.422;2023-04-01T01:04:50;10.48;88.50
68943;DHT22;60852;52.190;4.422;2023-04-01T01:12:42;10.55;88.38
68943;DHT22;60852;52.190;4.422;2023-04-01T01:34:40;10.52;88.32
68943;DHT22;60852;52.190;4.422;2023-04-01T01:37:16;10.55;88.49
68943;DHT22;60852;52.190;4.422;2023-04-01T01:39:46;10.61;88.43
68943;DHT22;60852;52.190;4.422;2023-04-01T01:42:15;10.61;88.40
68943;DHT22;60852;52.190;4.422;2023-04-01T01:44:45;10.58;88.45
68943;DHT22;60852;52.190;4.422;2023-04-01T01:47:14;10.62;88.30
68943;DHT22;60852;52.190;4.422;2023-04-01T01:49:43;10.58;88.35
68943;DHT22;60852;52.190;4.422;2023-04-01T01:52:08;10.64;88.36
68943;DHT22;60852;52.190;4.422;2023-04-01T01:54:34;10.65;88.34
68943;DHT22;60852;52.190;4.422;2023-04-01T01:57:10;10.69;88.33
68943;DHT22;60852;52.190;4.422;2023-04-01T01:59:38;10.68;88.09
68943;DHT22;60852;52.190;4.422;2023-04-01T02:02:08;10.64;88.13
68943;DHT22;60852;52.190;4.422;2023-04-01T02:04:39;10.58;88.31
68943;DHT22;60852;52.190;4.422;2023-04-01T02:07:11;10.60;88.38
68943;DHT22;60852;52.190;4.422;2023-04-01T02:09:39;10.60;88.46
68943;DHT22;60852;52.190;4.422;2023-04-01T02:12:11;10.64;88.45
68943;DHT22;60852;52.190;4.422;2023-04-01T02:14:54;10.62;88.22
68943;DHT22;60852;52.190;4.422;2023-04-01T02:17:24;10.58;88.51
68943;DHT22;60852;52.190;4.422;2023-04-01T02:19:56;10.55;88.67
68943;DHT22;60852;52.190;4.422;2023-04-01T02:22:33;10.64;88.55
68943;DHT22;60852;52.190;4.422;2023-04-01T02:25:12;10.64;88.46
68943;DHT22;60852;52.190;4.422;2023-04-01T02:27:40;10.65;88.30
68943;DHT22;60852;52.190;4.422;2023-04-01T02:30:07;10.72;88.35
68943;DHT22;60852;52.190;4.422;2023-04-01T02:32:35;10.75;88.30
68943;DHT22;60852;52.190;4.422;2023-04-01T02:35:05;10.75;88.34
68943;DHT22;60852;52.190;4.422;2023-04-01T02:37:31;10.72;88.32
68943;DHT22;60852;52.190;4.422;2023-04-01T02:40:02;10.73;88.29
68943;DHT22;60852;52.190;4.422;2023-04-01T02:42:27;10.76;88.28
68943;DHT22;60852;52.190;4.422;2023-04-01T02:44:53;10.81;88.23
68943;DHT22;60852;52.190;4.422;2023-04-01T02:47:18;10.81;88.16
68943;DHT22;60852;52.190;4.422;2023-04-01T02:49:44;10.76;88.06
68943;DHT22;60852;52.190;4.422;2023-04-01T02:52:09;10.75;88.34
68943;DHT22;60852;52.190;4.422;2023-04-01T02:54:35;10.71;88.34
68943;DHT22;60852;52.190;4.422;2023-04-01T02:57:01;10.68;88.56
68943;DHT22;60852;52.190;4.422;2023-04-01T02:59:27;10.65;88.75
68943;DHT22;60852;52.190;4.422;2023-04-01T03:01:52;10.67;88.73
68943;DHT22;60852;52.190;4.422;2023-04-01T03:04:17;10.64;88.73
68943;DHT22;60852;52.190;4.422;2023-04-01T03:06:43;10.54;88.93
68943;DHT22;60852;52.190;4.422;2023-04-01T03:09:08;10.54;89.33
68943;DHT22;60852;52.190;4.422;2023-04-01T03:11:34;10.54;89.32
68943;DHT22;60852;52.190;4.422;2023-04-01T03:13:59;10.57;89.31
68943;DHT22;60852;52.190;4.422;2023-04-01T03:16:25;10.60;89.34
68943;DHT22;60852;52.190;4.422;2023-04-01T03:18:50;10.58;89.08
68943;DHT22;60852;52.190;4.422;2023-04-01T03:21:23;10.62;89.26
68943;DHT22;60852;52.190;4.422;2023-04-01T03:23:49;10.55;88.87
68943;DHT22;60852;52.190;4.422;2023-04-01T03:26:15;10.51;89.35
68943;DHT22;60852;52.190;4.422;2023-04-01T03:28:41;10.57;89.48
68943;DHT22;60852;52.190;4.422;2023-04-01T03:31:07;10.58;89.24
68943;DHT22;60852;52.190;4.422;2023-04-01T03:33:32;10.64;89.34
68943;DHT22;60852;52.190;4.422;2023-04-01T03:35:58;10.55;88.99
68943;DHT22;60852;52.190;4.422;2023-04-01T03:38:23;10.54;89.22
68943;DHT22;60852;52.190;4.422;2023-04-01T03:40:49;10.58;89.33
68943;DHT22;60852;52.190;4.422;2023-04-01T03:43:14;10.54;89.27
68943;DHT22;60852;52.190;4.422;2023-04-01T03:45:45;10.62;89.31
68943;DHT22;60852;52.190;4.422;2023-04-01T03:48:11;10.58;88.75
68943;DHT22;60852;52.190;4.422;2023-04-01T03:50:36;10.50;89.25
68943;DHT22;60852;52.190;4.422;2023-04-01T03:53:02;10.45;89.39
68943;DHT22;60852;52.190;4.422;2023-04-01T03:55:27;10.52;89.48
68943;DHT22;60852;52.190;4.422;2023-04-01T03:57:53;10.54;89.13
68943;DHT22;60852;52.190;4.422;2023-04-01T04:00:18;10.50;89.13
68943;DHT22;60852;52.190;4.422;2023-04-01T04:02:44;10.48;88.98
68943;DHT22;60852;52.190;4.422;2023-04-01T04:05:09;10.54;88.96
68943;DHT22;60852;52.190;4.422;2023-04-01T04:07:36;10.48;88.57
68943;DHT22;60852;52.190;4.422;2023-04-01T04:10:01;10.48;88.82
68943;DHT22;60852;52.190;4.422;2023-04-01T04:12:27;10.45;89.00
68943;DHT22;60852;52.190;4.422;2023-04-01T04:14:52;10.45;88.91
68943;DHT22;60852;52.190;4.422;2023-04-01T04:17:18;10.47;88.71
68943;DHT22;60852;52.190;4.422;2023-04-01T04:19:43;10.50;88.82
68943;DHT22;60852;52.190;4.422;2023-04-01T04:22:09;10.45;88.81
68943;DHT22;60852;52.190;4.422;2023-04-01T04:24:35;10.41;88.70
68943;DHT22;60852;52.190;4.422;2023-04-01T04:27:01;10.36;88.98
68943;DHT22;60852;52.190;4.422;2023-04-01T04:29:26;10.31;89.04
68943;DHT22;60852;52.190;4.422;2023-04-01T04:31:52;10.21;89.49
68943;DHT22;60852;52.190;4.422;2023-04-01T04:34:17;10.23;89.40
68943;DHT22;60852;52.190;4.422;2023-04-01T04:36:44;10.31;89.33
68943;DHT22;60852;52.190;4.422;2023-04-01T04:39:09;10.23;89.26
68943;DHT22;60852;52.190;4.422;2023-04-01T04:41:37;10.29;89.44
68943;DHT22;60852;52.190;4.422;2023-04-01T04:44:03;10.30;89.20
68943;DHT22;60852;52.190;4.422;2023-04-01T04:46:29;10.20;89.38
68943;DHT22;60852;52.190;4.422;2023-04-01T04:48:54;10.21;89.50
68943;DHT22;60852;52.190;4.422;2023-04-01T04:51:21;10.25;89.42
68943;DHT22;60852;52.190;4.422;2023-04-01T04:53:48;10.20;89.45
68943;DHT22;60852;52.190;4.422;2023-04-01T04:56:18;10.17;89.39
68943;DHT22;60852;52.190;4.422;2023-04-01T04:58:43;10.20;89.47
68943;DHT22;60852;52.190;4.422;2023-04-01T05:01:12;10.23;89.43
68943;DHT22;60852;52.190;4.422;2023-04-01T05:03:39;10.17;89.34
68943;DHT22;60852;52.190;4.422;2023-04-01T05:06:06;10.13;89.76
68943;DHT22;60852;52.190;4.422;2023-04-01T05:08:32;10.21;89.64
68943;DHT22;60852;52.190;4.422;2023-04-01T05:11:02;10.24;89.43
68943;DHT22;60852;52.190;4.422;2023-04-01T05:13:28;10.17;89.55
68943;DHT22;60852;52.190;4.422;2023-04-01T05:15:55;10.21;89.61
68943;DHT22;60852;52.190;4.422;2023-04-01T05:18:21;10.21;89.45
68943;DHT22;60852;52.190;4.422;2023-04-01T05:20:48;10.17;89.34
68943;DHT22;60852;52.190;4.422;2023-04-01T05:23:14;10.12;89.57
68943;DHT22;60852;52.190;4.422;2023-04-01T05:25:40;10.16;89.57
68943;DHT22;60852;52.190;4.422;2023-04-01T05:28:05;10.13;89.47
68943;DHT22;60852;52.190;4.422;2023-04-01T05:30:30;10.13;89.55
68943;DHT22;60852;52.190;4.422;2023-04-01T05:32:56;10.14;89.78
68943;DHT22;60852;52.190;4.422;2023-04-01T05:35:21;10.21;89.41
68943;DHT22;60852;52.190;4.422;2023-04-01T05:37:47;10.10;89.27
68943;DHT22;60852;52.190;4.422;2023-04-01T05:40:12;10.10;89.70
68943;DHT22;60852;52.190;4.422;2023-04-01T05:42:38;10.09;89.23
68943;DHT22;60852;52.190;4.422;2023-04-01T05:45:03;10.10;89.63
68943;DHT22;60852;52.190;4.422;2023-04-01T05:47:29;10.02;89.54
68943;DHT22;60852;52.190;4.422;2023-04-01T05:49:54;10.03;89.61
68943;DHT22;60852;52.190;4.422;2023-04-01T05:52:20;10.07;89.54
68943;DHT22;60852;52.190;4.422;2023-04-01T05:54:46;10.04;89.64
68943;DHT22;60852;52.190;4.422;2023-04-01T05:57:11;9.96;89.81
68943;DHT22;60852;52.190;4.422;2023-04-01T05:59:37;9.97;89.68
68943;DHT22;60852;52.190;4.422;2023-04-01T06:02:02;10.07;89.75
68943;DHT22;60852;52.190;4.422;2023-04-01T06:04:34;10.12;89.58
68943;DHT22;60852;52.190;4.422;2023-04-01T06:07:10;10.00;89.44
68943;DHT22;60852;52.190;4.422;2023-04-01T06:09:35;10.12;89.71
68943;DHT22;60852;52.190;4.422;2023-04-01T06:17:39;10.06;89.71
68943;DHT22;60852;52.190;4.422;2023-04-01T06:31:20;10.23;89.33
68943;DHT22;60852;52.190;4.422;2023-04-01T06:34:14;10.17;89.59
68943;DHT22;60852;52.190;4.422;2023-04-01T06:36:46;10.14;89.45
68943;DHT22;60852;52.190;4.422;2023-04-01T06:42:09;10.18;89.53
68943;DHT22;60852;52.190;4.422;2023-04-01T06:44:43;10.30;89.31
68943;DHT22;60852;52.190;4.422;2023-04-01T06:50:24;10.24;89.46
68943;DHT22;60852;52.190;4.422;2023-04-01T06:52:57;10.33;89.35
68943;DHT22;60852;52.190;4.422;2023-04-01T06:55:44;10.33;89.22
68943;DHT22;60852;52.190;4.422;2023-04-01T06:58:22;10.41;89.13
68943;DHT22;60852;52.190;4.422;2023-04-01T07:00:54;10.38;88.92
68943;DHT22;60852;52.190;4.422;2023-04-01T07:03:30;10.38;89.15
68943;DHT22;60852;52.190;4.422;2023-04-01T07:06:03;10.29;88.97
68943;DHT22;60852;52.190;4.422;2023-04-01T07:08:29;10.18;89.07
68943;DHT22;60852;52.190;4.422;2023-04-01T07:13:44;10.29;89.26
68943;DHT22;60852;52.190;4.422;2023-04-01T07:18:56;10.38;88.76
68943;DHT22;60852;52.190;4.422;2023-04-01T07:21:29;10.41;88.80
68943;DHT22;60852;52.190;4.422;2023-04-01T07:24:03;10.29;88.87
68943;DHT22;60852;52.190;4.422;2023-04-01T07:26:30;10.27;88.97
68943;DHT22;60852;52.190;4.422;2023-04-01T07:28:56;10.29;88.87
68943;DHT22;60852;52.190;4.422;2023-04-01T07:31:25;10.31;89.05
68943;DHT22;60852;52.190;4.422;2023-04-01T07:36:52;10.37;89.00
68943;DHT22;60852;52.190;4.422;2023-04-01T07:45:35;10.47;88.70
68943;DHT22;60852;52.190;4.422;2023-04-01T07:48:24;10.50;88.54
68943;DHT22;60852;52.190;4.422;2023-04-01T07:51:03;10.45;88.31
68943;DHT22;60852;52.190;4.422;2023-04-01T07:56:22;10.33;88.47
68943;DHT22;60852;52.190;4.422;2023-04-01T07:59:04;10.31;88.69
68943;DHT22;60852;52.190;4.422;2023-04-01T08:01:54;10.23;88.59
68943;DHT22;60852;52.190;4.422;2023-04-01T08:10:17;10.47;88.57
68943;DHT22;60852;52.190;4.422;2023-04-01T08:18:43;10.50;88.14
68943;DHT22;60852;52.190;4.422;2023-04-01T08:21:20;10.52;88.33
68943;DHT22;60852;52.190;4.422;2023-04-01T08:23:51;10.61;88.24
68943;DHT22;60852;52.190;4.422;2023-04-01T08:26:26;10.62;87.97
68943;DHT22;60852;52.190;4.422;2023-04-01T08:29:11;10.58;88.09
68943;DHT22;60852;52.190;4.422;2023-04-01T08:34:30;10.45;87.99
68943;DHT22;60852;52.190;4.422;2023-04-01T08:37:06;10.42;88.47
68943;DHT22;60852;52.190;4.422;2023-04-01T08:39:54;10.51;88.69
68943;DHT22;60852;52.190;4.422;2023-04-01T08:53:45;10.52;88.29
68943;DHT22;60852;52.190;4.422;2023-04-01T09:04:45;10.54;88.62
68943;DHT22;60852;52.190;4.422;2023-04-01T09:07:49;10.62;88.65
68943;DHT22;60852;52.190;4.422;2023-04-01T09:10:52;10.52;88.18
68943;DHT22;60852;52.190;4.422;2023-04-01T09:13:29;10.62;88.69
68943;DHT22;60852;52.190;4.422;2023-04-01T09:21:57;10.89;88.23
68943;DHT22;60852;52.190;4.422;2023-04-01T09:27:26;10.96;87.84
68943;DHT22;60852;52.190;4.422;2023-04-01T09:35:39;10.92;87.17
68943;DHT22;60852;52.190;4.422;2023-04-01T09:38:30;10.89;87.45
68943;DHT22;60852;52.190;4.422;2023-04-01T09:56:01;10.95;87.60
68943;DHT22;60852;52.190;4.422;2023-04-01T09:58:39;10.89;87.38
68943;DHT22;60852;52.190;4.422;2023-04-01T10:13:07;11.03;87.98
68943;DHT22;60852;52.190;4.422;2023-04-01T10:20:52;10.98;87.20
68943;DHT22;60852;52.190;4.422;2023-04-01T10:41:15;11.06;87.80
68943;DHT22;60852;52.190;4.422;2023-04-01T10:46:32;11.12;87.59
68943;DHT22;60852;52.190;4.422;2023-04-01T10:55:29;11.12;87.30
68943;DHT22;60852;52.190;4.422;2023-04-01T10:58:17;11.26;87.19
68943;DHT22;60852;52.190;4.422;2023-04-01T11:20:49;11.34;86.40
68943;DHT22;60852;52.190;4.422;2023-04-01T11:23:35;11.37;86.59
68943;DHT22;60852;52.190;4.422;2023-04-01T11:26:26;11.37;86.03
68943;DHT22;60852;52.190;4.422;2023-04-01T11:29:19;11.19;86.72
68943;DHT22;60852;52.190;4.422;2023-04-01T11:32:26;11.24;86.57
68943;DHT22;60852;52.190;4.422;2023-04-01T11:35:19;11.15;86.66
68943;DHT22;60852;52.190;4.422;2023-04-01T11:41:16;11.18;87.08
68943;DHT22;60852;52.190;4.422;2023-04-01T11:46:52;11.29;86.90
68943;DHT22;60852;52.190;4.422;2023-04-01T11:55:25;11.54;86.20
68943;DHT22;60852;52.190;4.422;2023-04-01T12:05:51;11.59;85.79
68943;DHT22;60852;52.190;4.422;2023-04-01T12:11:39;11.74;85.70
68943;DHT22;60852;52.190;4.422;2023-04-01T12:19:43;11.75;85.59
68943;DHT22;60852;52.190;4.422;2023-04-01T12:24:58;11.84;85.49
68943;DHT22;60852;52.190;4.422;2023-04-01T12:27:45;11.98;86.06
68943;DHT22;60852;52.190;4.422;2023-04-01T12:39:27;12.08;84.12
68943;DHT22;60852;52.190;4.422;2023-04-01T12:42:42;12.06;84.89
68943;DHT22;60852;52.190;4.422;2023-04-01T12:50:56;12.33;84.51
68943;DHT22;60852;52.190;4.422;2023-04-01T12:56:14;11.80;84.08
68943;DHT22;60852;52.190;4.422;2023-04-01T13:01:41;11.63;84.77
68943;DHT22;60852;52.190;4.422;2023-04-01T13:04:37;11.73;85.07
68943;DHT22;60852;52.190;4.422;2023-04-01T13:10:26;11.49;84.83
68943;DHT22;60852;52.190;4.422;2023-04-01T13:13:23;11.53;85.46
68943;DHT22;60852;52.190;4.422;2023-04-01T13:16:26;11.53;85.18
68943;DHT22;60852;52.190;4.422;2023-04-01T13:19:08;11.47;85.40
68943;DHT22;60852;52.190;4.422;2023-04-01T13:21:53;11.54;85.25
68943;DHT22;60852;52.190;4.422;2023-04-01T13:24:31;11.70;85.23
68943;DHT22;60852;52.190;4.422;2023-04-01T13:29:45;11.75;84.66
68943;DHT22;60852;52.190;4.422;2023-04-01T13:32:20;11.81;84.62
68943;DHT22;60852;52.190;4.422;2023-04-01T13:35:20;11.70;84.28
68943;DHT22;60852;52.190;4.422;2023-04-01T13:38:14;11.82;84.09
68943;DHT22;60852;52.190;4.422;2023-04-01T13:43:50;12.21;83.49
68943;DHT22;60852;52.190;4.422;2023-04-01T13:49:48;11.75;83.29
68943;DHT22;60852;52.190;4.422;2023-04-01T13:52:27;11.68;83.96
68943;DHT22;60852;52.190;4.422;2023-04-01T14:06:23;11.75;83.54
68943;DHT22;60852;52.190;4.422;2023-04-01T14:11:45;11.71;83.79
68943;DHT22;60852;52.190;4.422;2023-04-01T14:17:31;11.49;84.42
68943;DHT22;60852;52.190;4.422;2023-04-01T14:20:20;11.61;83.83
68943;DHT22;60852;52.190;4.422;2023-04-01T14:28:43;11.49;84.47
68943;DHT22;60852;52.190;4.422;2023-04-01T14:31:43;11.61;84.00
68943;DHT22;60852;52.190;4.422;2023-04-01T14:37:22;11.37;85.11
68943;DHT22;60852;52.190;4.422;2023-04-01T14:40:21;11.23;85.32
68943;DHT22;60852;52.190;4.422;2023-04-01T14:48:34;11.20;85.99
68943;DHT22;60852;52.190;4.422;2023-04-01T14:51:24;11.37;85.79
68943;DHT22;60852;52.190;4.422;2023-04-01T14:59:29;11.57;85.00
68943;DHT22;60852;52.190;4.422;2023-04-01T15:02:01;11.47;85.18
68943;DHT22;60852;52.190;4.422;2023-04-01T15:04:41;11.53;84.76
68943;DHT22;60852;52.190;4.422;2023-04-01T15:18:14;11.36;85.00
68943;DHT22;60852;52.190;4.422;2023-04-01T15:23:54;11.36;85.08
68943;DHT22;60852;52.190;4.422;2023-04-01T15:26:32;11.37;85.03
68943;DHT22;60852;52.190;4.422;2023-04-01T15:32:02;11.18;85.62
68943;DHT22;60852;52.190;4.422;2023-04-01T15:45:09;11.16;86.15
68943;DHT22;60852;52.190;4.422;2023-04-01T15:47:44;11.27;86.24
68943;DHT22;60852;52.190;4.422;2023-04-01T15:55:59;11.15;86.14
68943;DHT22;60852;52.190;4.422;2023-04-01T15:58:44;11.13;86.21
68943;DHT22;60852;52.190;4.422;2023-04-01T16:01:44;11.27;85.98
68943;DHT22;60852;52.190;4.422;2023-04-01T16:04:42;11.43;85.53
68943;DHT22;60852;52.190;4.422;2023-04-01T16:07:39;11.47;85.50
68943;DHT22;60852;52.190;4.422;2023-04-01T16:15:57;11.78;84.66
68943;DHT22;60852;52.190;4.422;2023-04-01T16:21:37;11.67;84.28
68943;DHT22;60852;52.190;4.422;2023-04-01T16:27:19;11.40;85.13
68943;DHT22;60852;52.190;4.422;2023-04-01T16:30:24;11.43;85.18
68943;DHT22;60852;52.190;4.422;2023-04-01T16:33:14;11.39;85.70
68943;DHT22;60852;52.190;4.422;2023-04-01T16:35:58;11.44;85.41
68943;DHT22;60852;52.190;4.422;2023-04-01T16:41:24;11.31;84.85
68943;DHT22;60852;52.190;4.422;2023-04-01T16:43:57;11.31;85.12
68943;DHT22;60852;52.190;4.422;2023-04-01T16:46:38;11.39;84.86
68943;DHT22;60852;52.190;4.422;2023-04-01T16:54:30;11.23;83.61
68943;DHT22;60852;52.190;4.422;2023-04-01T16:57:04;11.23;83.57
68943;DHT22;60852;52.190;4.422;2023-04-01T17:02:39;11.19;83.80
68943;DHT22;60852;52.190;4.422;2023-04-01T17:05:11;11.20;83.88
68943;DHT22;60852;52.190;4.422;2023-04-01T17:10:30;10.99;83.94
68943;DHT22;60852;52.190;4.422;2023-04-01T17:15:52;11.01;84.14
68943;DHT22;60852;52.190;4.422;2023-04-01T17:23:43;10.83;84.03
68943;DHT22;60852;52.190;4.422;2023-04-01T17:34:23;10.79;83.90
68943;DHT22;60852;52.190;4.422;2023-04-01T17:37:10;10.75;84.04
68943;DHT22;60852;52.190;4.422;2023-04-01T17:51:43;10.57;83.77
68943;DHT22;60852;52.190;4.422;2023-04-01T17:54:21;10.58;83.92
68943;DHT22;60852;52.190;4.422;2023-04-01T17:57:28;10.64;83.84
68943;DHT22;60852;52.190;4.422;2023-04-01T18:00:17;10.57;83.59
68943;DHT22;60852;52.190;4.422;2023-04-01T18:05:43;10.62;83.64
68943;DHT22;60852;52.190;4.422;2023-04-01T18:08:26;10.65;83.32
68943;DHT22;60852;52.190;4.422;2023-04-01T18:11:28;10.69;83.24
68943;DHT22;60852;52.190;4.422;2023-04-01T18:14:17;10.73;83.20
68943;DHT22;60852;52.190;4.422;2023-04-01T18:20:02;10.62;82.91
68943;DHT22;60852;52.190;4.422;2023-04-01T18:22:53;10.47;83.39
68943;DHT22;60852;52.190;4.422;2023-04-01T18:25:37;10.44;83.27
68943;DHT22;60852;52.190;4.422;2023-04-01T18:30:55;10.38;83.21
68943;DHT22;60852;52.190;4.422;2023-04-01T18:39:17;10.34;83.51
68943;DHT22;60852;52.190;4.422;2023-04-01T18:42:06;10.23;83.55
68943;DHT22;60852;52.190;4.422;2023-04-01T18:44:44;10.20;83.66
68943;DHT22;60852;52.190;4.422;2023-04-01T18:50:55;10.03;83.74
68943;DHT22;60852;52.190;4.422;2023-04-01T18:56:10;10.04;83.68
68943;DHT22;60852;52.190;4.422;2023-04-01T19:01:40;10.00;83.98
68943;DHT22;60852;52.190;4.422;2023-04-01T19:04:56;9.93;83.66
68943;DHT22;60852;52.190;4.422;2023-04-01T19:07:19;9.85;84.08
68943;DHT22;60852;52.190;4.422;2023-04-01T19:09:48;9.81;83.99
68943;DHT22;60852;52.190;4.422;2023-04-01T19:12:58;9.73;84.21
68943;DHT22;60852;52.190;4.422;2023-04-01T19:15:31;9.76;84.11
68943;DHT22;60852;52.190;4.422;2023-04-01T19:18:22;9.76;83.93
68943;DHT22;60852;52.190;4.422;2023-04-01T19:26:17;9.79;83.39
68943;DHT22;60852;52.190;4.422;2023-04-01T19:36:50;9.69;83.47
68943;DHT22;60852;52.190;4.422;2023-04-01T19:39:45;9.58;83.55
68943;DHT22;60852;52.190;4.422;2023-04-01T19:42:30;9.55;84.00
68943;DHT22;60852;52.190;4.422;2023-04-01T19:47:55;9.61;83.54
68943;DHT22;60852;52.190;4.422;2023-04-01T19:50:27;9.49;83.83
68943;DHT22;60852;52.190;4.422;2023-04-01T19:53:11;9.45;83.87
68943;DHT22;60852;52.190;4.422;2023-04-01T19:56:16;9.38;83.81
68943;DHT22;60852;52.190;4.422;2023-04-01T19:59:21;9.36;83.92
68943;DHT22;60852;52.190;4.422;2023-04-01T20:01:59;9.32;83.81
68943;DHT22;60852;52.190;4.422;2023-04-01T20:04:42;9.35;83.94
68943;DHT22;60852;52.190;4.422;2023-04-01T20:07:27;9.32;83.79
68943;DHT22;60852;52.190;4.422;2023-04-01T20:10:09;9.25;83.88
68943;DHT22;60852;52.190;4.422;2023-04-01T20:15:34;9.23;84.19
68943;DHT22;60852;52.190;4.422;2023-04-01T20:18:05;9.21;84.00
68943;DHT22;60852;52.190;4.422;2023-04-01T20:20:37;9.18;84.11
68943;DHT22;60852;52.190;4.422;2023-04-01T20:26:10;9.30;83.54
68943;DHT22;60852;52.190;4.422;2023-04-01T20:28:48;9.31;83.47
68943;DHT22;60852;52.190;4.422;2023-04-01T20:31:26;9.27;83.16
68943;DHT22;60852;52.190;4.422;2023-04-01T20:40:14;9.21;83.25
68943;DHT22;60852;52.190;4.422;2023-04-01T20:42:52;9.27;83.22
68943;DHT22;60852;52.190;4.422;2023-04-01T20:45:46;9.17;83.44
68943;DHT22;60852;52.190;4.422;2023-04-01T20:48:52;9.11;83.50
68943;DHT22;60852;52.190;4.422;2023-04-01T20:51:26;8.97;83.82
68943;DHT22;60852;52.190;4.422;2023-04-01T20:54:19;9.01;83.99
68943;DHT22;60852;52.190;4.422;2023-04-01T21:03:06;8.90;83.70
68943;DHT22;60852;52.190;4.422;2023-04-01T21:05:57;8.91;83.79
68943;DHT22;60852;52.190;4.422;2023-04-01T21:11:35;8.91;83.70
68943;DHT22;60852;52.190;4.422;2023-04-01T21:17:41;8.77;83.50
68943;DHT22;60852;52.190;4.422;2023-04-01T21:20:18;8.74;83.70
68943;DHT22;60852;52.190;4.422;2023-04-01T21:34:30;8.53;83.84
68943;DHT22;60852;52.190;4.422;2023-04-01T21:43:07;8.62;83.48
68943;DHT22;60852;52.190;4.422;2023-04-01T21:46:08;8.55;83.43
68943;DHT22;60852;52.190;4.422;2023-04-01T21:54:40;8.46;83.56
68943;DHT22;60852;52.190;4.422;2023-04-01T22:16:57;8.39;83.53
68943;DHT22;60852;52.190;4.422;2023-04-01T22:30:13;8.31;83.61
68943;DHT22;60852;52.190;4.422;2023-04-01T22:32:45;8.32;83.56
68943;DHT22;60852;52.190;4.422;2023-04-01T22:43:38;8.21;83.40
68943;DHT22;60852;52.190;4.422;2023-04-01T22:49:03;8.20;82.82
68943;DHT22;60852;52.190;4.422;2023-04-01T22:51:44;8.09;83.09
68943;DHT22;60852;52.190;4.422;2023-04-01T22:57:03;8.11;83.17
68943;DHT22;60852;52.190;4.422;2023-04-01T22:59:44;8.14;82.94
68943;DHT22;60852;52.190;4.422;2023-04-01T23:04:48;8.06;82.94
68943;DHT22;60852;52.190;4.422;2023-04-01T23:09:54;7.95;83.02
68943;DHT22;60852;52.190;4.422;2023-04-01T23:12:25;8.08;83.05
68943;DHT22;60852;52.190;4.422;2023-04-01T23:14:59;7.98;82.96
68943;DHT22;60852;52.190;4.422;2023-04-01T23:30:58;7.91;82.86
68943;DHT22;60852;52.190;4.422;2023-04-01T23:33:29;7.94;82.73
68943;DHT22;60852;52.190;4.422;2023-04-01T23:35:58;7.94;82.69
68943;DHT22;60852;52.190;4.422;2023-04-01T23:38:36;7.81;82.84
68943;DHT22;60852;52.190;4.422;2023-04-01T23:41:05;7.87;82.94
68943;DHT22;60852;52.190;4.422;2023-04-01T23:43:36;7.77;83.08
68943;DHT22;60852;52.190;4.422;2023-04-01T23:46:06;7.74;83.05
68943;DHT22;60852;52.190;4.422;2023-04-01T23:48:39;7.74;82.98
68943;DHT22;60852;52.190;4.422;2023-04-01T23:51:28;7.74;83.06
68943;DHT22;60852;52.190;4.422;2023-04-01T23:54:23;7.73;83.05
68943;DHT22;60852;52.190;4.422;2023-04-01T23:56:53;7.73;82.88
68943;DHT22;60852;52.190;4.422;2023-04-01T23:59:30;7.73;82.89
